createdAt,value
2019-05-28T00:00:41.915Z,48.90
2019-05-28T00:03:10.776Z,48.80
2019-05-28T00:05:39.338Z,48.90
2019-05-28T00:08:07.931Z,48.80
2019-05-28T00:10:36.563Z,48.90
2019-05-28T00:13:05.114Z,48.80
2019-05-28T00:15:33.690Z,48.80
2019-05-28T00:18:02.518Z,48.70
2019-05-28T00:20:31.132Z,48.70
2019-05-28T00:23:00.089Z,48.70
2019-05-28T00:25:29.467Z,48.70
2019-05-28T00:27:58.193Z,48.60
2019-05-28T00:30:26.786Z,48.70
2019-05-28T00:32:55.451Z,48.60
2019-05-28T00:35:24.166Z,48.40
2019-05-28T00:37:52.747Z,48.40
2019-05-28T00:40:21.298Z,48.40
2019-05-28T00:42:49.848Z,48.40
2019-05-28T00:45:18.443Z,48.40
2019-05-28T00:47:47.071Z,48.40
2019-05-28T00:50:15.735Z,48.40
2019-05-28T00:52:44.330Z,48.50
2019-05-28T00:55:13.232Z,48.40
2019-05-28T00:57:43.059Z,48.50
2019-05-28T01:00:11.678Z,48.40
2019-05-28T01:02:40.669Z,48.40
2019-05-28T01:05:09.249Z,48.40
2019-05-28T01:07:37.885Z,48.40
2019-05-28T01:10:06.615Z,48.40
2019-05-28T01:12:35.918Z,48.40
2019-05-28T01:15:05.202Z,48.40
2019-05-28T01:17:33.774Z,48.30
2019-05-28T01:20:02.319Z,48.20
2019-05-28T01:22:30.887Z,48.30
2019-05-28T01:24:59.722Z,48.40
2019-05-28T01:27:28.287Z,48.30
2019-05-28T01:29:56.858Z,48.30
2019-05-28T01:32:25.413Z,48.10
2019-05-28T01:34:54.236Z,48.10
2019-05-28T01:37:22.810Z,48.10
2019-05-28T01:39:51.360Z,48.10
2019-05-28T01:42:19.895Z,48.20
2019-05-28T01:44:48.606Z,48.10
2019-05-28T01:47:17.162Z,48.20
2019-05-28T01:49:45.710Z,48.10
2019-05-28T01:52:14.287Z,48.10
2019-05-28T01:54:42.848Z,48.10
2019-05-28T01:57:11.738Z,48.20
2019-05-28T01:59:40.310Z,48.10
2019-05-28T02:02:08.951Z,48.00
2019-05-28T02:04:37.803Z,48.00
2019-05-28T02:07:06.369Z,48.10
2019-05-28T02:09:34.919Z,48.10
2019-05-28T02:12:03.462Z,48.10
2019-05-28T02:14:32.037Z,48.20
2019-05-28T02:17:00.581Z,48.10
2019-05-28T02:19:29.238Z,48.00
2019-05-28T02:21:57.793Z,48.00
2019-05-28T02:24:26.390Z,48.00
2019-05-28T02:26:54.973Z,47.90
2019-05-28T02:29:23.756Z,47.90
2019-05-28T02:31:52.379Z,47.90
2019-05-28T02:34:20.938Z,48.00
2019-05-28T02:36:49.488Z,48.00
2019-05-28T02:39:18.062Z,47.90
2019-05-28T02:41:46.782Z,47.90
2019-05-28T02:44:15.355Z,47.90
2019-05-28T02:46:44.014Z,47.90
2019-05-28T02:49:12.906Z,47.90
2019-05-28T02:51:42.066Z,47.90
2019-05-28T02:54:10.614Z,47.90
2019-05-28T02:56:39.926Z,47.90
2019-05-28T02:59:08.845Z,47.80
2019-05-28T03:01:44.458Z,47.80
2019-05-28T03:04:07.886Z,47.80
2019-05-28T03:06:36.436Z,47.80
2019-05-28T03:09:07.243Z,47.80
2019-05-28T03:11:35.805Z,47.80
2019-05-28T03:14:04.718Z,47.80
2019-05-28T03:16:33.358Z,47.70
2019-05-28T03:19:01.902Z,47.70
2019-05-28T03:21:30.451Z,47.70
2019-05-28T03:23:59.029Z,47.60
2019-05-28T03:26:28.798Z,47.60
2019-05-28T03:28:58.034Z,47.70
2019-05-28T03:31:26.686Z,47.70
2019-05-28T03:33:55.218Z,47.70
2019-05-28T03:36:24.400Z,47.70
2019-05-28T03:38:52.942Z,47.60
2019-05-28T03:41:21.822Z,47.50
2019-05-28T03:43:50.450Z,47.60
2019-05-28T03:46:19.006Z,47.60
2019-05-28T03:48:47.602Z,47.60
2019-05-28T03:51:16.250Z,47.70
2019-05-28T03:53:44.801Z,47.50
2019-05-28T03:56:13.379Z,47.50
2019-05-28T03:58:42.275Z,47.50
2019-05-28T04:01:10.855Z,47.40
2019-05-28T04:03:39.474Z,47.50
2019-05-28T04:06:08.022Z,47.60
2019-05-28T04:08:36.610Z,47.50
2019-05-28T04:11:05.336Z,47.40
2019-05-28T04:13:33.900Z,47.50
2019-05-28T04:16:02.819Z,47.50
2019-05-28T04:18:31.458Z,47.30
2019-05-28T04:21:00.007Z,47.30
2019-05-28T04:23:28.798Z,47.40
2019-05-28T04:25:57.718Z,47.50
2019-05-28T04:28:26.615Z,47.50
2019-05-28T04:30:55.164Z,47.40
2019-05-28T04:33:23.810Z,47.40
2019-05-28T04:35:52.395Z,47.40
2019-05-28T04:38:21.017Z,47.30
2019-05-28T04:40:49.751Z,47.30
2019-05-28T04:43:18.312Z,47.30
2019-05-28T04:45:46.945Z,47.30
2019-05-28T04:48:15.795Z,47.40
2019-05-28T04:50:44.658Z,47.20
2019-05-28T04:53:13.577Z,47.30
2019-05-28T04:55:42.662Z,47.20
2019-05-28T04:58:11.468Z,47.20
2019-05-28T05:00:40.066Z,47.20
2019-05-28T05:03:08.599Z,47.20
2019-05-28T05:05:37.159Z,47.10
2019-05-28T05:08:05.709Z,47.20
2019-05-28T05:10:34.379Z,47.00
2019-05-28T05:13:02.934Z,47.00
2019-05-28T05:15:31.490Z,47.00
2019-05-28T05:18:00.058Z,47.00
2019-05-28T05:20:29.023Z,47.00
2019-05-28T05:22:57.651Z,46.90
2019-05-28T05:25:26.730Z,46.80
2019-05-28T05:27:55.351Z,46.80
2019-05-28T05:30:23.925Z,46.80
2019-05-28T05:32:52.538Z,46.80
2019-05-28T05:35:21.098Z,46.70
2019-05-28T05:37:49.658Z,46.60
2019-05-28T05:40:18.281Z,46.50
2019-05-28T05:42:47.234Z,46.60
2019-05-28T05:45:15.830Z,46.50
2019-05-28T05:47:44.692Z,46.50
2019-05-28T05:50:13.343Z,46.40
2019-05-28T05:52:41.999Z,46.40
2019-05-28T05:55:10.890Z,46.40
2019-05-28T05:57:39.740Z,46.30
2019-05-28T06:00:11.548Z,46.30
2019-05-28T06:02:39.218Z,46.40
2019-05-28T06:05:08.123Z,46.30
2019-05-28T06:07:36.761Z,46.30
2019-05-28T06:10:06.072Z,46.40
2019-05-28T06:12:34.698Z,46.30
2019-05-28T06:15:03.310Z,46.30
2019-05-28T06:17:32.502Z,46.20
2019-05-28T06:20:01.420Z,46.20
2019-05-28T06:22:30.063Z,46.20
2019-05-28T06:24:58.710Z,46.20
2019-05-28T06:27:27.284Z,46.10
2019-05-28T06:29:55.830Z,46.00
2019-05-28T06:32:24.727Z,46.00
2019-05-28T06:34:53.279Z,46.00
2019-05-28T06:37:22.098Z,46.00
2019-05-28T06:39:50.738Z,46.00
2019-05-28T06:42:19.381Z,45.90
2019-05-28T06:44:48.337Z,45.90
2019-05-28T06:47:16.964Z,46.30
2019-05-28T06:49:45.526Z,45.80
2019-05-28T06:52:14.099Z,45.80
2019-05-28T06:54:42.719Z,45.90
2019-05-28T06:57:22.200Z,46.00
2019-05-28T06:59:41.995Z,45.70
2019-05-28T07:02:10.549Z,45.50
2019-05-28T07:04:39.130Z,45.50
2019-05-28T07:07:07.678Z,45.10
2019-05-28T07:09:36.574Z,45.10
2019-05-28T07:12:05.135Z,44.70
2019-05-28T07:14:34.047Z,45.00
2019-05-28T07:17:02.648Z,45.30
2019-05-28T07:19:31.490Z,45.20
2019-05-28T07:22:00.411Z,45.10
2019-05-28T07:24:29.032Z,44.90
2019-05-28T07:26:57.684Z,44.60
2019-05-28T07:29:26.678Z,44.60
2019-05-28T07:31:55.260Z,45.00
2019-05-28T07:34:30.596Z,44.90
2019-05-28T07:36:54.126Z,44.60
2019-05-28T07:39:22.964Z,44.70
2019-05-28T07:41:51.642Z,44.80
2019-05-28T07:44:20.579Z,44.70
2019-05-28T07:46:49.163Z,44.90
2019-05-28T07:49:18.021Z,44.30
2019-05-28T07:51:46.656Z,44.40
2019-05-28T07:54:15.214Z,44.40
2019-05-28T07:56:43.775Z,44.00
2019-05-28T07:59:12.475Z,44.10
2019-05-28T08:01:41.333Z,44.00
2019-05-28T08:04:10.238Z,43.90
2019-05-28T08:06:53.799Z,44.40
2019-05-28T08:09:09.170Z,43.90
2019-05-28T08:11:38.107Z,43.80
2019-05-28T08:14:06.967Z,43.80
2019-05-28T08:16:35.693Z,42.90
2019-05-28T08:19:04.304Z,43.00
2019-05-28T08:21:33.005Z,41.00
2019-05-28T08:24:01.660Z,42.00
2019-05-28T08:26:30.251Z,41.70
2019-05-28T08:28:59.731Z,41.80
2019-05-28T08:31:28.588Z,41.00
2019-05-28T08:33:57.547Z,42.60
2019-05-28T08:36:26.139Z,42.30
2019-05-28T08:38:55.027Z,42.00
2019-05-28T08:41:23.913Z,42.70
2019-05-28T08:43:52.564Z,42.20
2019-05-28T08:46:21.182Z,41.90
2019-05-28T08:48:49.818Z,42.00
2019-05-28T08:51:18.619Z,41.90
2019-05-28T08:53:47.175Z,41.90
2019-05-28T08:56:15.839Z,42.30
2019-05-28T08:58:44.407Z,42.30
2019-05-28T09:01:13.063Z,41.60
2019-05-28T09:03:41.663Z,42.00
2019-05-28T09:06:10.264Z,41.00
2019-05-28T09:08:40.255Z,40.90
2019-05-28T09:11:09.557Z,41.60
2019-05-28T09:13:38.282Z,40.80
2019-05-28T09:16:06.834Z,40.50
2019-05-28T09:18:35.399Z,40.90
2019-05-28T09:21:04.266Z,41.50
2019-05-28T09:23:33.551Z,41.70
2019-05-28T09:26:02.226Z,40.70
2019-05-28T09:28:31.394Z,39.60
2019-05-28T09:31:00.101Z,40.40
2019-05-28T09:33:28.754Z,40.40
2019-05-28T09:36:07.933Z,41.40
2019-05-28T09:38:27.647Z,40.50
2019-05-28T09:40:56.497Z,40.10
2019-05-28T09:43:25.584Z,40.90
2019-05-28T09:45:54.215Z,40.50
2019-05-28T09:48:22.856Z,40.40
2019-05-28T09:50:52.041Z,39.80
2019-05-28T09:53:20.724Z,38.80
2019-05-28T09:55:49.627Z,39.80
2019-05-28T09:58:18.286Z,40.40
2019-05-28T10:00:57.778Z,39.20
2019-05-28T10:03:17.408Z,39.50
2019-05-28T10:06:01.738Z,39.70
2019-05-28T10:08:16.602Z,40.10
2019-05-28T10:10:45.174Z,38.20
2019-05-28T10:13:13.730Z,39.90
2019-05-28T10:15:42.408Z,39.70
2019-05-28T10:18:11.050Z,39.30
2019-05-28T10:20:39.608Z,39.80
2019-05-28T10:23:08.454Z,39.20
2019-05-28T10:25:37.299Z,39.50
2019-05-28T10:28:06.239Z,39.30
2019-05-28T10:30:34.803Z,40.20
2019-05-28T10:33:03.423Z,40.70
2019-05-28T10:35:33.435Z,41.00
2019-05-28T10:38:02.454Z,40.50
2019-05-28T10:40:31.643Z,40.30
2019-05-28T10:43:00.498Z,40.20
2019-05-28T10:45:29.084Z,40.30
2019-05-28T10:47:58.394Z,40.20
2019-05-28T10:50:27.023Z,40.20
2019-05-28T10:52:55.587Z,40.00
2019-05-28T10:55:24.174Z,39.90
2019-05-28T10:57:52.859Z,39.70
2019-05-28T11:00:21.798Z,39.90
2019-05-28T11:02:50.966Z,40.10
2019-05-28T11:05:19.514Z,40.00
2019-05-28T11:07:48.386Z,39.90
2019-05-28T11:10:24.134Z,40.00
2019-05-28T11:12:47.870Z,39.80
2019-05-28T11:15:16.575Z,39.90
2019-05-28T11:17:45.143Z,39.90
2019-05-28T11:20:14.078Z,40.00
2019-05-28T11:22:42.834Z,40.20
2019-05-28T11:25:11.398Z,40.20
2019-05-28T11:27:39.967Z,40.40
2019-05-28T11:30:08.717Z,40.30
2019-05-28T11:32:37.388Z,40.50
2019-05-28T11:35:06.187Z,40.30
2019-05-28T11:37:34.822Z,40.30
2019-05-28T11:40:03.809Z,40.30
2019-05-28T11:42:32.422Z,40.20
2019-05-28T11:45:01.016Z,40.20
2019-05-28T11:47:29.759Z,40.10
2019-05-28T11:49:58.351Z,40.00
2019-05-28T11:52:27.016Z,40.10
2019-05-28T11:54:55.996Z,40.20
2019-05-28T11:57:24.610Z,40.20
2019-05-28T11:59:53.222Z,40.20
2019-05-28T12:02:22.187Z,40.20
2019-05-28T12:04:50.747Z,40.10
2019-05-28T12:07:25.952Z,40.10
2019-05-28T12:09:49.859Z,40.00
2019-05-28T12:12:18.442Z,40.10
2019-05-28T12:14:47.010Z,40.10
2019-05-28T12:17:16.103Z,40.10
2019-05-28T12:19:44.742Z,40.20
2019-05-28T12:22:13.379Z,40.30
2019-05-28T12:24:41.963Z,40.40
2019-05-28T12:27:10.535Z,40.30
2019-05-28T12:29:51.502Z,40.40
2019-05-28T12:32:10.305Z,40.40
2019-05-28T12:34:39.474Z,40.40
2019-05-28T12:37:08.170Z,40.50
2019-05-28T12:39:36.735Z,40.50
2019-05-28T12:42:07.313Z,40.60
2019-05-28T12:44:42.311Z,40.50
2019-05-28T12:47:05.891Z,40.60
2019-05-28T12:49:34.503Z,40.60
2019-05-28T12:52:03.142Z,40.60
2019-05-28T12:54:31.775Z,40.70
2019-05-28T12:57:00.727Z,40.70
2019-05-28T12:59:29.291Z,40.70
2019-05-28T13:01:58.235Z,40.70
2019-05-28T13:04:27.199Z,40.70
2019-05-28T13:06:55.754Z,40.70
2019-05-28T13:09:24.321Z,40.70
2019-05-28T13:11:52.956Z,40.80
2019-05-28T13:14:21.642Z,40.80
2019-05-28T13:16:50.214Z,40.80
2019-05-28T13:19:19.032Z,40.90
2019-05-28T13:21:47.843Z,40.90
2019-05-28T13:24:16.787Z,40.90
2019-05-28T13:26:45.398Z,41.50
2019-05-28T13:29:13.931Z,40.90
2019-05-28T13:31:42.480Z,41.00
2019-05-28T13:34:11.314Z,41.00
2019-05-28T13:36:39.903Z,40.90
2019-05-28T13:39:08.638Z,40.90
2019-05-28T13:41:37.223Z,41.60
2019-05-28T13:44:07.950Z,41.10
2019-05-28T13:46:36.392Z,41.20
2019-05-28T13:49:05.002Z,41.20
2019-05-28T13:51:33.588Z,41.30
2019-05-28T13:54:02.157Z,41.20
2019-05-28T13:56:30.705Z,41.10
2019-05-28T13:58:59.284Z,41.00
2019-05-28T14:01:28.034Z,41.10
2019-05-28T14:03:56.764Z,41.00
2019-05-28T14:06:25.423Z,41.00
2019-05-28T14:08:53.978Z,41.10
2019-05-28T14:11:22.586Z,41.00
2019-05-28T14:13:51.136Z,41.00
2019-05-28T14:16:19.698Z,40.90
2019-05-28T14:18:48.245Z,41.10
2019-05-28T14:21:16.834Z,41.00
2019-05-28T14:23:45.386Z,41.30
2019-05-28T14:26:13.950Z,41.40
2019-05-28T14:28:42.741Z,41.40
2019-05-28T14:31:11.309Z,41.40
2019-05-28T14:33:39.883Z,41.50
2019-05-28T14:36:08.789Z,41.40
2019-05-28T14:38:37.671Z,41.30
2019-05-28T14:41:06.828Z,41.30
2019-05-28T14:43:35.669Z,41.40
2019-05-28T14:46:04.373Z,41.40
2019-05-28T14:48:32.922Z,41.50
2019-05-28T14:51:01.823Z,41.50
2019-05-28T14:53:30.459Z,41.50
2019-05-28T14:55:59.539Z,41.40
2019-05-28T14:58:28.107Z,41.50
2019-05-28T15:00:56.647Z,41.60
2019-05-28T15:03:25.223Z,41.60
2019-05-28T15:05:54.149Z,41.70
2019-05-28T15:08:23.040Z,41.70
2019-05-28T15:10:51.646Z,41.70
2019-05-28T15:13:20.514Z,41.60
2019-05-28T15:15:49.404Z,41.60
2019-05-28T15:18:17.967Z,41.60
2019-05-28T15:20:46.533Z,41.70
2019-05-28T15:23:15.202Z,41.70
2019-05-28T15:25:43.794Z,41.70
2019-05-28T15:28:12.340Z,41.70
2019-05-28T15:30:42.682Z,41.80
2019-05-28T15:33:11.952Z,41.80
2019-05-28T15:35:40.542Z,41.80
2019-05-28T15:38:09.429Z,41.80
2019-05-28T15:40:38.415Z,41.90
2019-05-28T15:43:07.051Z,41.90
2019-05-28T15:45:35.774Z,41.80
2019-05-28T15:48:04.452Z,41.90
2019-05-28T15:50:33.209Z,41.90
2019-05-28T15:53:01.882Z,41.90
2019-05-28T15:55:30.446Z,41.90
2019-05-28T15:57:59.630Z,41.80
2019-05-28T16:00:28.209Z,42.30
2019-05-28T16:02:56.755Z,41.90
2019-05-28T16:05:25.310Z,41.90
2019-05-28T16:07:54.271Z,41.90
2019-05-28T16:10:22.866Z,42.00
2019-05-28T16:12:51.534Z,41.90
2019-05-28T16:15:20.447Z,41.90
2019-05-28T16:17:49.327Z,41.80
2019-05-28T16:20:18.215Z,41.80
2019-05-28T16:22:46.794Z,41.80
2019-05-28T16:25:15.458Z,41.80
2019-05-28T16:27:44.002Z,42.00
2019-05-28T16:30:12.823Z,41.80
2019-05-28T16:32:41.454Z,41.60
2019-05-28T16:35:10.027Z,41.70
2019-05-28T16:37:38.918Z,41.60
2019-05-28T16:40:15.102Z,41.60
2019-05-28T16:42:38.322Z,41.60
2019-05-28T16:45:07.202Z,41.60
2019-05-28T16:47:36.190Z,41.60
2019-05-28T16:50:04.847Z,41.60
2019-05-28T16:52:33.425Z,41.50
2019-05-28T16:55:02.035Z,41.50
2019-05-28T16:57:30.874Z,41.60
2019-05-28T16:59:59.770Z,41.50
2019-05-28T17:02:28.374Z,41.60
2019-05-28T17:04:56.934Z,41.60
2019-05-28T17:07:25.611Z,41.60
2019-05-28T17:09:54.266Z,41.60
2019-05-28T17:12:22.891Z,41.70
2019-05-28T17:14:51.458Z,42.10
2019-05-28T17:17:20.290Z,41.60
2019-05-28T17:19:48.894Z,41.60
2019-05-28T17:22:17.786Z,42.20
2019-05-28T17:24:46.813Z,41.60
2019-05-28T17:27:15.662Z,41.60
2019-05-28T17:29:44.219Z,41.70
2019-05-28T17:32:12.762Z,41.70
2019-05-28T17:34:41.591Z,41.70
2019-05-28T17:37:10.139Z,41.70
2019-05-28T17:39:39.055Z,41.70
2019-05-28T17:42:07.694Z,41.70
2019-05-28T17:44:37.924Z,41.80
2019-05-28T17:47:06.480Z,41.80
2019-05-28T17:49:35.110Z,41.70
2019-05-28T17:52:03.696Z,41.70
2019-05-28T17:54:32.311Z,41.80
2019-05-28T17:57:00.878Z,41.70
2019-05-28T17:59:29.425Z,41.80
2019-05-28T18:01:58.062Z,41.70
2019-05-28T18:04:26.850Z,41.80
2019-05-28T18:06:55.403Z,41.80
2019-05-28T18:09:23.986Z,41.70
2019-05-28T18:11:52.836Z,41.70
2019-05-28T18:14:23.749Z,41.80
2019-05-28T18:16:52.999Z,42.40
2019-05-28T18:19:21.607Z,41.90
2019-05-28T18:21:50.506Z,42.00
2019-05-28T18:24:20.936Z,42.10
2019-05-28T18:26:50.036Z,42.10
2019-05-28T18:29:18.651Z,42.20
2019-05-28T18:31:47.826Z,42.20
2019-05-28T18:34:16.382Z,42.30
2019-05-28T18:36:44.930Z,42.30
2019-05-28T18:39:13.515Z,42.90
2019-05-28T18:41:42.071Z,42.50
2019-05-28T18:44:10.641Z,42.50
2019-05-28T18:46:40.936Z,42.50
2019-05-28T18:49:09.538Z,42.60
2019-05-28T18:51:39.102Z,42.70
2019-05-28T18:54:08.322Z,42.70
2019-05-28T18:56:36.878Z,42.70
2019-05-28T18:59:05.769Z,42.90
2019-05-28T19:01:34.681Z,42.70
2019-05-28T19:04:03.294Z,42.70
2019-05-28T19:06:32.231Z,42.90
2019-05-28T19:09:01.698Z,42.80
2019-05-28T19:11:37.669Z,42.80
2019-05-28T19:14:01.130Z,42.90
2019-05-28T19:16:29.722Z,42.80
2019-05-28T19:18:58.298Z,42.90
2019-05-28T19:21:26.870Z,42.90
2019-05-28T19:23:55.803Z,42.90
2019-05-28T19:26:24.912Z,42.90
2019-05-28T19:28:53.486Z,43.00
2019-05-28T19:31:22.100Z,43.00
2019-05-28T19:33:50.782Z,43.00
2019-05-28T19:36:19.367Z,43.10
2019-05-28T19:38:47.962Z,43.00
2019-05-28T19:41:16.907Z,43.10
2019-05-28T19:43:45.534Z,43.10
2019-05-28T19:46:14.126Z,43.10
2019-05-28T19:48:42.759Z,43.00
2019-05-28T19:51:11.626Z,43.10
2019-05-28T19:53:40.447Z,43.10
2019-05-28T19:56:08.998Z,43.20
2019-05-28T19:58:38.227Z,43.10
2019-05-28T20:04:47.943Z,43.10
2019-05-28T20:07:16.494Z,43.30
2019-05-28T20:09:45.355Z,43.10
2019-05-28T20:12:13.904Z,43.20
2019-05-28T20:14:42.806Z,43.20
2019-05-28T20:17:11.777Z,43.20
2019-05-28T20:19:40.614Z,43.30
2019-05-28T20:22:09.262Z,43.30
2019-05-28T20:24:37.826Z,43.20
2019-05-28T20:27:06.666Z,43.30
2019-05-28T20:29:35.214Z,43.20
2019-05-28T20:32:04.930Z,43.90
2019-05-28T20:34:33.938Z,43.30
2019-05-28T20:37:03.549Z,43.30
2019-05-28T20:39:32.644Z,43.30
2019-05-28T20:42:01.979Z,43.20
2019-05-28T20:44:30.768Z,43.40
2019-05-28T20:47:00.475Z,43.10
2019-05-28T20:49:29.467Z,43.10
2019-05-28T20:51:58.358Z,43.20
2019-05-28T20:54:27.253Z,43.20
2019-05-28T20:56:56.704Z,43.20
2019-05-28T20:59:26.134Z,43.20
2019-05-28T21:01:55.790Z,43.20
2019-05-28T21:04:24.535Z,43.20
2019-05-28T21:06:53.095Z,43.20
2019-05-28T21:09:22.542Z,43.10
2019-05-28T21:11:52.695Z,43.20
2019-05-28T21:14:21.382Z,43.20
2019-05-28T21:16:51.791Z,43.30
2019-05-28T21:19:20.257Z,43.20
2019-05-28T21:21:49.559Z,43.30
2019-05-28T21:24:18.707Z,43.30
2019-05-28T21:26:47.279Z,43.20
2019-05-28T21:29:15.835Z,43.20
2019-05-28T21:31:44.422Z,43.20
2019-05-28T21:34:13.050Z,43.20
2019-05-28T21:36:41.604Z,43.10
2019-05-28T21:39:10.246Z,43.20
2019-05-28T21:41:39.231Z,43.10
2019-05-28T21:44:07.887Z,43.10
2019-05-28T21:46:36.509Z,43.10
2019-05-28T21:49:05.058Z,43.10
2019-05-28T21:51:34.309Z,43.10
2019-05-28T21:54:03.313Z,43.10
2019-05-28T21:56:32.061Z,43.10
2019-05-28T21:59:01.661Z,43.10
2019-05-28T22:01:30.407Z,43.20
2019-05-28T22:03:59.473Z,43.00
2019-05-28T22:06:28.471Z,43.10
2019-05-28T22:08:57.749Z,43.10
2019-05-28T22:11:26.479Z,43.10
2019-05-28T22:13:56.026Z,43.10
2019-05-28T22:16:24.680Z,43.10
2019-05-28T22:18:53.226Z,43.20
2019-05-28T22:21:21.802Z,43.20
2019-05-28T22:23:50.367Z,43.10
2019-05-28T22:26:18.921Z,43.20
2019-05-28T22:28:47.489Z,43.20
2019-05-28T22:31:16.052Z,43.10
2019-05-28T22:33:45.047Z,43.10
2019-05-28T22:36:13.939Z,43.10
2019-05-28T22:38:44.214Z,43.10
2019-05-28T22:41:12.783Z,43.10
2019-05-28T22:43:41.338Z,43.10
2019-05-28T22:46:10.205Z,43.10
2019-05-28T22:48:38.770Z,43.10
2019-05-28T22:51:07.749Z,43.20
2019-05-28T22:53:39.948Z,43.30
2019-05-28T22:56:06.910Z,43.30
2019-05-28T22:58:36.095Z,43.30
2019-05-28T23:01:04.649Z,43.30
2019-05-28T23:03:33.345Z,43.30
2019-05-28T23:06:02.922Z,43.30
2019-05-28T23:08:31.826Z,43.20
2019-05-28T23:11:02.566Z,43.20
2019-05-28T23:13:44.122Z,43.10
2019-05-28T23:16:02.697Z,43.10
2019-05-28T23:18:31.354Z,43.00
2019-05-28T23:21:00.614Z,43.10
2019-05-28T23:23:29.357Z,43.10
2019-05-28T23:25:58.561Z,43.10
2019-05-28T23:28:27.209Z,43.00
2019-05-28T23:30:55.773Z,43.00
2019-05-28T23:33:24.348Z,43.00
2019-05-28T23:35:52.897Z,43.10
2019-05-28T23:38:21.474Z,43.10
2019-05-28T23:40:50.771Z,43.00
2019-05-28T23:43:19.322Z,43.00
2019-05-28T23:45:47.893Z,43.10
2019-05-28T23:48:18.404Z,43.00
2019-05-28T23:50:47.768Z,43.00
2019-05-28T23:53:16.376Z,43.10
2019-05-28T23:55:44.961Z,43.10
2019-05-28T23:58:14.211Z,43.00
